OMAL/AAN METAR and TAF weather

Enter ICAO airport designator
Station Type Date Time Source
OMAL METAR 2021/05/10 22:00 UTC NOAA

OMAL 102200Z 10004KT CAVOK 25/12 Q1007 NOSIG


Station Type Date Time Source
OMAL Decoded METAR 2021/05/10 22:00 UTC NOAA

Al Ain International Airport, United Arab Emirates (OMAL) 24-16N 055-36E 262M
May 10, 2021 - 06:00 PM EDT / 2021.05.10 2200 UTC
Wind: from the E (100 degrees) at 5 MPH (4 KT):0
Visibility: greater than 7 mile(s):0
Temperature: 77 F (25 C)
Dew Point: 53 F (12 C)
Relative Humidity: 44%
Pressure (altimeter): 29.74 in. Hg (1007 hPa)
ob: OMAL 102200Z 10004KT CAVOK 25/12 Q1007 NOSIG
cycle: 22

Station Type Date Time Source
OMAL TAF 2021/05/10 18:01 UTC NOAA

TAF OMAL 101700Z 1018/1200 32005KT 8000 NSC
BECMG 1020/1022 12005KT
BECMG 1108/1110 33011KT
BECMG 1119/1121 VRB02KT

Example: see airport list